Time;durP1;ratioP1;P1;durP2;ratioP2;P2;SDS_P1;SDS_P2;PMS_P1;PMS_P2;Temp;Humidity;BMP_temperature;BMP_pressure;BME280_temperature;BME280_humidity;BME280_pressure;Samples;Min_cycle;Max_cycle;Signal;HPM_P1;HPM_P2
2023/06/22 00:05:20;;;;;;;7.90;6.60;;;;;;;19.33;98.23;99219.19;271819;1271;23321;-87
2023/06/22 00:11:41;;;;;;;7.80;6.50;;;;;;;19.31;98.32;99218.34;271987;1275;22694;-86
2023/06/22 00:18:46;;;;;;;9.60;7.40;;;;;;;19.24;98.15;99208.70;271498;1275;22566;-85
2023/06/22 00:40:21;;;;;;;13.80;8.00;;;;;;;19.08;99.46;99238.04;272068;1270;22280;-85
2023/06/22 00:54:25;;;;;;;16.00;10.30;;;;;;;19.01;99.83;99238.02;272052;1267;22564;-85
2023/06/22 01:00:56;;;;;;;12.90;9.40;;;;;;;18.93;99.98;99231.67;271458;1261;22219;-85
2023/06/22 01:07:41;;;;;;;14.70;9.60;;;;;;;18.87;99.97;99230.52;270475;1267;22618;-85
2023/06/22 01:13:55;;;;;;;15.50;9.20;;;;;;;18.75;99.97;99214.34;270700;1269;22543;-85
2023/06/22 01:20:20;;;;;;;12.10;8.40;;;;;;;18.72;100.00;99212.79;271522;1257;22361;-85
2023/06/22 01:27:41;;;;;;;13.50;8.70;;;;;;;18.69;100.00;99187.04;270984;1268;22189;-86
2023/06/22 01:34:21;;;;;;;14.80;8.10;;;;;;;18.71;100.00;99184.70;270477;1265;22617;-85
2023/06/22 01:41:16;;;;;;;13.70;8.40;;;;;;;18.79;100.00;99196.67;271840;1262;23426;-86
2023/06/22 01:47:24;;;;;;;11.90;7.50;;;;;;;18.84;100.00;99202.36;272009;1269;22193;-85
2023/06/22 01:53:48;;;;;;;10.70;7.60;;;;;;;18.82;100.00;99217.31;272971;1270;22174;-86
2023/06/22 02:07:09;;;;;;;9.20;7.20;;;;;;;18.69;100.00;99209.84;272128;1267;22506;-85
2023/06/22 02:13:57;;;;;;;16.30;7.90;;;;;;;18.59;100.00;99202.43;270324;1267;23675;-86
2023/06/22 02:20:28;;;;;;;9.20;6.70;;;;;;;18.55;100.00;99208.52;270531;1262;23330;-86
2023/06/22 02:27:47;;;;;;;10.70;7.20;;;;;;;18.56;100.00;99207.08;272348;1269;25476;-85
2023/06/22 02:34:29;;;;;;;10.70;6.90;;;;;;;18.56;100.00;99213.81;270218;1273;23463;-86
2023/06/22 02:40:55;;;;;;;9.10;7.30;;;;;;;18.55;100.00;99220.39;272621;1273;23449;-87
2023/06/22 02:47:05;;;;;;;12.60;8.30;;;;;;;18.55;100.00;99218.10;272228;1272;22572;-86
2023/06/22 02:54:39;;;;;;;7.60;6.10;;;;;;;18.45;100.00;99226.35;270558;1272;22417;-86
2023/06/22 03:01:27;;;;;;;8.40;6.60;;;;;;;18.43;100.00;99236.61;270961;1272;23338;-86
2023/06/22 03:15:26;;;;;;;10.90;6.30;;;;;;;18.43;100.00;99246.34;271970;1268;22286;-86
2023/06/22 03:21:56;;;;;;;12.00;6.80;;;;;;;18.39;100.00;99254.46;270836;1269;22787;-86
2023/06/22 03:28:05;;;;;;;9.70;7.10;;;;;;;18.34;100.00;99262.84;272023;1260;22534;-84
2023/06/22 03:35:13;;;;;;;12.00;7.20;;;;;;;18.20;100.00;99267.02;272563;1263;22580;-85
2023/06/22 03:41:22;;;;;;;10.40;6.50;;;;;;;18.17;100.00;99269.37;271788;1269;22569;-85
2023/06/22 03:47:48;;;;;;;11.10;7.80;;;;;;;18.18;100.00;99267.69;270719;1263;22608;-87
2023/06/22 03:54:09;;;;;;;11.00;6.80;;;;;;;18.23;100.00;99279.98;271612;1269;22507;-87
2023/06/22 04:01:11;;;;;;;9.70;6.70;;;;;;;18.31;100.00;99287.60;271207;1269;22340;-86
2023/06/22 04:08:13;;;;;;;13.80;7.50;;;;;;;18.37;100.00;99296.55;271193;1267;23152;-88
2023/06/22 04:14:42;;;;;;;17.70;9.50;;;;;;;18.47;100.00;99292.61;270779;1269;22520;-87
2023/06/22 04:21:48;;;;;;;14.80;8.10;;;;;;;18.58;100.00;99294.01;270353;1267;24359;-85
2023/06/22 04:29:05;;;;;;;14.90;7.50;;;;;;;18.74;100.00;99297.64;270582;1267;121459;-86
2023/06/22 04:36:46;;;;;;;16.70;8.80;;;;;;;18.93;100.00;99303.86;270034;1273;22541;-86
2023/06/22 04:43:09;;;;;;;12.40;9.20;;;;;;;19.10;100.00;99307.69;269389;1272;22595;-84
2023/06/22 04:50:31;;;;;;;14.90;9.80;;;;;;;19.29;100.00;99300.36;268961;1268;22580;-86
2023/06/22 04:57:50;;;;;;;19.80;9.30;;;;;;;19.47;100.00;99306.61;271466;1272;22333;-86
2023/06/22 05:03:55;;;;;;;15.30;9.40;;;;;;;19.65;100.00;99312.05;271237;1263;23092;-86
2023/06/22 05:11:00;;;;;;;11.70;7.90;;;;;;;19.83;100.00;99322.20;270814;1267;22614;-84
2023/06/22 05:17:19;;;;;;;;;;;;;;;20.01;100.00;99322.95;270029;1267;23255;-87
2023/06/22 05:23:20;;;;;;;13.40;7.50;;;;;;;20.19;100.00;99318.61;269944;1267;22542;-85
2023/06/22 05:29:23;;;;;;;13.00;7.20;;;;;;;20.38;100.00;99318.52;271073;1267;22562;-86
2023/06/22 05:35:26;;;;;;;14.70;6.60;;;;;;;20.57;100.00;99323.04;269701;1272;23369;-85
2023/06/22 05:42:03;;;;;;;13.10;8.40;;;;;;;20.76;100.00;99326.25;270652;1269;22558;-86
2023/06/22 05:48:50;;;;;;;22.20;8.90;;;;;;;20.95;100.00;99328.02;272599;1267;22350;-86
2023/06/22 06:10:21;;;;;;;13.30;8.40;;;;;;;21.65;100.00;99350.23;273686;1270;22285;-87
2023/06/22 06:16:54;;;;;;;15.10;8.40;;;;;;;21.90;100.00;99358.05;273936;1270;22191;-86
2023/06/22 06:24:29;;;;;;;12.20;7.70;;;;;;;22.15;100.00;99360.92;271350;1274;22543;-85
2023/06/22 06:30:58;;;;;;;22.00;10.00;;;;;;;22.36;100.00;99359.58;270788;1270;22743;-85
2023/06/22 06:37:01;;;;;;;18.10;9.40;;;;;;;22.52;100.00;99366.80;269422;1272;22675;-86
2023/06/22 06:43:57;;;;;;;12.70;9.20;;;;;;;22.71;100.00;99363.19;273302;1272;22236;-85
2023/06/22 06:50:23;;;;;;;16.60;10.10;;;;;;;22.91;100.00;99366.11;271833;1268;22315;-84
2023/06/22 06:56:25;;;;;;;17.70;9.60;;;;;;;23.12;100.00;99366.44;270648;1269;22526;-85
2023/06/22 07:02:58;;;;;;;13.80;9.50;;;;;;;23.23;99.72;99369.17;270675;1269;22604;-84
2023/06/22 07:09:07;;;;;;;13.60;10.00;;;;;;;23.54;99.73;99357.48;270059;1271;22557;-84
2023/06/22 07:15:12;;;;;;;17.40;9.80;;;;;;;24.15;99.20;99353.91;269927;1262;23895;-86
2023/06/22 07:21:30;;;;;;;15.20;11.00;;;;;;;24.70;97.56;99353.52;274067;1273;23789;-84
2023/06/22 07:27:35;;;;;;;14.00;10.50;;;;;;;25.06;96.60;99350.14;273661;1270;23202;-85
2023/06/22 07:34:02;;;;;;;15.60;10.90;;;;;;;25.41;95.11;99345.20;273825;1269;22546;-85
2023/06/22 07:40:16;;;;;;;15.60;11.80;;;;;;;25.55;94.14;99340.66;273834;1269;22258;-85
2023/06/22 07:46:40;;;;;;;15.90;11.40;;;;;;;25.73;92.87;99339.84;273960;1270;22302;-83
2023/06/22 07:53:24;;;;;;;21.30;12.90;;;;;;;25.71;92.22;99341.46;273865;1269;22289;-85
2023/06/22 07:59:27;;;;;;;15.00;11.80;;;;;;;25.99;91.27;99345.41;273804;1269;22384;-84
2023/06/22 08:05:42;;;;;;;14.90;11.30;;;;;;;26.26;89.50;99350.40;273392;1270;22236;-83
2023/06/22 08:11:43;;;;;;;19.60;12.70;;;;;;;26.45;88.45;99362.35;273560;1270;22222;-85
2023/06/22 08:17:46;;;;;;;18.80;12.40;;;;;;;26.50;86.84;99368.54;274023;1272;22355;-84
2023/06/22 08:24:30;;;;;;;19.00;13.20;;;;;;;26.47;86.04;99370.04;273411;1270;23413;-85
2023/06/22 08:30:32;;;;;;;18.20;13.40;;;;;;;26.58;85.81;99370.45;273739;1270;22219;-85
2023/06/22 08:36:43;;;;;;;19.50;14.10;;;;;;;26.33;85.21;99372.49;273657;1270;22201;-84
2023/06/22 08:43:17;;;;;;;15.80;12.80;;;;;;;26.12;85.51;99365.44;272967;1270;22647;-85
2023/06/22 08:49:19;;;;;;;17.50;15.70;;;;;;;26.36;84.83;99367.84;273904;1270;22200;-85
2023/06/22 08:55:24;;;;;;;23.80;17.20;;;;;;;26.28;83.99;99369.17;273492;1270;22211;-85
2023/06/22 09:02:13;;;;;;;21.10;18.00;;;;;;;26.34;83.82;99373.96;273818;1275;22206;-86
2023/06/22 09:09:46;;;;;;;22.20;19.20;;;;;;;26.70;82.75;99373.19;273947;1269;22732;-84
2023/06/22 09:16:07;;;;;;;22.00;18.70;;;;;;;26.79;81.89;99365.92;274083;1270;22362;-84
2023/06/22 09:22:38;;;;;;;20.50;18.50;;;;;;;27.02;81.20;99364.90;274022;1267;22245;-84
2023/06/22 09:29:01;;;;;;;22.30;18.80;;;;;;;27.38;80.62;99361.46;274044;1276;22377;-84
2023/06/22 09:35:42;;;;;;;20.20;18.20;;;;;;;27.58;78.81;99363.17;274104;1260;22387;-84
2023/06/22 09:41:44;;;;;;;19.70;17.80;;;;;;;27.82;77.79;99359.81;274004;1270;23663;-84
2023/06/22 09:47:45;;;;;;;16.90;15.30;;;;;;;27.85;75.67;99358.69;273942;1269;22273;-86
2023/06/22 09:53:55;;;;;;;16.40;14.80;;;;;;;28.14;75.00;99361.63;273946;1270;23189;-84
2023/06/22 09:59:56;;;;;;;15.50;13.90;;;;;;;28.89;74.22;99355.48;273801;1269;22217;-86
2023/06/22 10:05:58;;;;;;;19.00;15.00;;;;;;;29.30;72.94;99353.52;273928;1256;23251;-85
2023/06/22 10:12:25;;;;;;;16.50;14.90;;;;;;;29.58;71.19;99350.70;274071;1269;22332;-87
2023/06/22 10:18:26;;;;;;;17.60;15.40;;;;;;;29.76;69.35;99345.23;273899;1269;22208;-85
2023/06/22 10:25:13;;;;;;;16.70;14.90;;;;;;;29.95;68.04;99340.51;274050;1270;22268;-84
2023/06/22 10:31:46;;;;;;;16.90;15.20;;;;;;;30.13;65.24;99334.52;272959;1270;22250;-85
2023/06/22 10:37:50;;;;;;;14.10;12.70;;;;;;;30.17;64.59;99326.31;273837;1270;23650;-84
2023/06/22 10:44:32;;;;;;;14.90;13.00;;;;;;;30.28;63.47;99323.53;274037;1260;22187;-85
2023/06/22 10:50:33;;;;;;;19.30;13.90;;;;;;;30.20;63.65;99319.23;274003;1270;22328;-85
2023/06/22 10:56:35;;;;;;;12.80;11.70;;;;;;;30.02;63.86;99308.45;274092;1270;22211;-85
2023/06/22 11:02:50;;;;;;;13.80;12.30;;;;;;;29.61;63.71;99307.75;273964;1270;22226;-84
2023/06/22 11:09:20;;;;;;;13.70;12.20;;;;;;;29.83;63.77;99295.42;272814;1270;22352;-85
2023/06/22 11:15:24;;;;;;;14.20;12.80;;;;;;;30.19;61.95;99291.23;273934;1270;22350;-85
2023/06/22 11:21:28;;;;;;;11.20;9.70;;;;;;;30.49;61.45;99284.21;273054;1267;24285;-85
2023/06/22 11:27:29;;;;;;;11.40;10.30;;;;;;;30.61;59.81;99286.71;270334;1261;22501;-84
2023/06/22 11:33:31;;;;;;;10.70;9.70;;;;;;;29.98;59.39;99283.05;272719;1269;22470;-85
2023/06/22 11:39:35;;;;;;;11.00;10.00;;;;;;;29.48;60.19;99280.27;270034;1269;22642;-84
2023/06/22 11:45:42;;;;;;;11.80;10.70;;;;;;;29.25;60.17;99280.75;269902;1269;22553;-85
2023/06/22 11:51:46;;;;;;;11.50;10.40;;;;;;;29.45;60.39;99271.52;269665;1270;22579;-85
2023/06/22 11:58:15;;;;;;;9.70;8.70;;;;;;;29.93;60.17;99267.83;269716;1269;23395;-85
2023/06/22 12:04:16;;;;;;;9.90;8.90;;;;;;;30.24;59.71;99262.52;269975;1267;22574;-86
2023/06/22 12:10:17;;;;;;;11.30;9.60;;;;;;;30.17;58.83;99256.81;270891;1270;23302;-83
2023/06/22 12:16:19;;;;;;;12.10;10.80;;;;;;;29.86;58.15;99247.64;270219;1267;22354;-84
2023/06/22 12:22:20;;;;;;;10.80;9.70;;;;;;;29.46;57.89;99253.88;270182;1267;23396;-86
2023/06/22 12:28:23;;;;;;;10.90;9.70;;;;;;;29.68;58.63;99253.98;273688;1261;22244;-84
2023/06/22 12:34:28;;;;;;;12.30;11.10;;;;;;;29.83;58.40;99243.27;273774;1267;22343;-84
2023/06/22 12:40:34;;;;;;;11.30;10.00;;;;;;;29.81;57.28;99230.36;273790;1269;22847;-84
2023/06/22 12:47:20;;;;;;;12.60;11.30;;;;;;;29.60;56.93;99227.44;273945;1266;22492;-83
2023/06/22 12:53:23;;;;;;;12.60;11.30;;;;;;;29.32;57.64;99221.18;274086;1267;22359;-83
2023/06/22 12:59:36;;;;;;;14.20;11.60;;;;;;;29.21;57.97;99216.70;274032;1267;22408;-84
2023/06/22 13:05:43;;;;;;;15.80;12.80;;;;;;;29.17;57.63;99212.61;272461;1270;23613;-84
2023/06/22 13:12:26;;;;;;;14.10;12.60;;;;;;;28.92;58.10;99204.75;274060;1269;22716;-84
2023/06/22 13:18:39;;;;;;;;;;;;;;;;;;;;;
2023/06/22 13:25:22;;;;;;;13.10;11.80;;;;;;;28.31;58.23;99200.71;269563;1267;22565;-86
2023/06/22 13:31:24;;;;;;;12.60;11.30;;;;;;;28.27;59.05;99193.91;270750;1267;22523;-85
2023/06/22 13:37:26;;;;;;;11.60;10.50;;;;;;;28.43;59.75;99189.95;271371;1269;22413;-85
2023/06/22 13:43:27;;;;;;;11.50;10.40;;;;;;;28.65;58.83;99187.76;272870;1267;26612;-85
2023/06/22 13:49:35;;;;;;;13.10;10.60;;;;;;;28.80;57.84;99184.63;271408;1267;22635;-84
2023/06/22 13:55:36;;;;;;;13.30;10.70;;;;;;;28.90;58.11;99178.44;269800;1267;22520;-86
2023/06/22 14:01:49;;;;;;;10.30;9.30;;;;;;;28.98;57.90;99174.02;262697;1267;10001248;-84
2023/06/22 14:07:53;;;;;;;11.20;9.30;;;;;;;29.08;57.44;99168.83;271998;1267;22470;-85
2023/06/22 14:14:23;;;;;;;10.10;9.10;;;;;;;29.15;56.96;99166.82;273852;1256;22316;-85
2023/06/22 14:20:24;;;;;;;11.00;9.40;;;;;;;29.22;56.89;99165.75;273790;1267;23468;-84
2023/06/22 14:27:08;;;;;;;9.60;8.70;;;;;;;29.28;56.44;99165.46;273751;1266;22316;-85
2023/06/22 14:33:09;;;;;;;14.90;8.90;;;;;;;29.30;55.88;99165.64;274011;1269;22253;-85
2023/06/22 14:39:13;;;;;;;12.10;7.60;;;;;;;29.33;55.50;99163.83;273829;1269;22203;-85
2023/06/22 14:45:35;;;;;;;9.00;8.20;;;;;;;29.39;56.15;99158.20;273888;1269;23238;-84
2023/06/22 14:51:36;;;;;;;10.00;8.10;;;;;;;29.42;55.89;99154.90;273770;1267;23712;-82
2023/06/22 14:57:59;;;;;;;9.40;8.50;;;;;;;29.42;55.80;99150.23;273920;1270;22222;-82
2023/06/22 15:04:19;;;;;;;11.70;7.90;;;;;;;29.46;55.21;99146.41;273896;1267;22638;-84
2023/06/22 15:10:20;;;;;;;9.80;7.10;;;;;;;29.47;55.52;99144.02;273796;1267;23658;-83
2023/06/22 15:16:21;;;;;;;7.80;6.50;;;;;;;29.38;55.36;99145.00;273690;1269;22334;-84
2023/06/22 15:22:42;;;;;;;7.00;6.40;;;;;;;29.29;55.28;99140.80;273850;1268;22330;-84
2023/06/22 15:28:43;;;;;;;8.70;6.60;;;;;;;29.19;55.02;99137.54;273725;1269;22235;-82
2023/06/22 15:34:44;;;;;;;8.30;6.90;;;;;;;29.05;55.16;99137.38;274032;1268;23094;-83
2023/06/22 15:41:00;;;;;;;7.40;6.70;;;;;;;28.90;55.42;99140.59;273493;1269;22269;-84
2023/06/22 15:47:02;;;;;;;10.70;6.40;;;;;;;28.77;55.63;99150.73;273688;1260;22147;-85
2023/06/22 15:53:24;;;;;;;8.40;6.60;;;;;;;28.65;55.92;99146.73;273632;1260;23492;-84
2023/06/22 15:59:52;;;;;;;8.00;6.80;;;;;;;28.59;56.25;99143.90;273767;1267;22346;-84
2023/06/22 16:05:53;;;;;;;7.90;6.40;;;;;;;28.50;56.28;99142.48;273848;1267;22205;-83
2023/06/22 16:12:15;;;;;;;11.40;7.10;;;;;;;28.39;56.29;99139.16;273832;1267;22424;-84
2023/06/22 16:18:17;;;;;;;7.10;6.40;;;;;;;28.31;56.53;99138.13;273460;1267;22310;-84
2023/06/22 16:24:18;;;;;;;12.40;6.80;;;;;;;28.22;56.86;99136.88;269033;1256;5624036;-84
2023/06/22 16:30:22;;;;;;;9.20;6.80;;;;;;;28.09;57.05;99135.15;273779;1253;22414;-85
2023/06/22 16:36:53;;;;;;;8.80;7.50;;;;;;;27.98;57.26;99136.88;273798;1269;22340;-84
2023/06/22 16:42:58;;;;;;;10.10;6.80;;;;;;;27.86;57.66;99134.44;273720;1267;23543;-85
2023/06/22 16:49:37;;;;;;;9.10;7.80;;;;;;;27.78;58.03;99129.50;273610;1267;22496;-85
2023/06/22 16:55:48;;;;;;;6.90;6.20;;;;;;;27.74;58.21;99128.77;273008;1269;22284;-85
2023/06/22 17:01:56;;;;;;;9.40;7.50;;;;;;;27.68;58.64;99126.20;273626;1269;23201;-84
2023/06/22 17:08:43;;;;;;;8.70;6.80;;;;;;;27.59;59.00;99125.98;273818;1259;22692;-84
2023/06/22 17:16:01;;;;;;;10.00;6.60;;;;;;;27.48;59.36;99113.36;273881;1267;22184;-85
2023/06/22 17:22:21;;;;;;;9.50;7.20;;;;;;;27.38;59.41;99110.44;273807;1267;22918;-84
2023/06/22 17:28:27;;;;;;;7.70;6.90;;;;;;;27.28;59.85;99105.64;273729;1269;22185;-85
2023/06/22 17:34:46;;;;;;;7.70;6.90;;;;;;;27.18;59.98;99109.90;272114;1267;22545;-83
2023/06/22 17:41:04;;;;;;;8.70;7.60;;;;;;;27.07;59.79;99109.81;271220;1267;22541;-82
2023/06/22 17:47:27;;;;;;;11.10;7.10;;;;;;;26.97;59.79;99109.72;271154;1267;22501;-85
2023/06/22 17:54:42;;;;;;;8.60;7.00;;;;;;;26.84;60.02;99107.31;273079;1267;23587;-84
2023/06/22 18:01:05;;;;;;;7.60;6.80;;;;;;;26.72;60.12;99103.37;272588;1272;22457;-84
2023/06/22 18:07:48;;;;;;;11.90;7.40;;;;;;;26.60;60.40;99095.40;272253;1272;22233;-85
2023/06/22 18:14:19;;;;;;;8.20;7.00;;;;;;;26.46;60.77;99093.58;272750;1272;22982;-84
2023/06/22 18:20:35;;;;;;;11.80;7.50;;;;;;;26.33;61.05;99088.20;272810;1272;22344;-85
2023/06/22 18:26:43;;;;;;;12.90;7.70;;;;;;;26.21;61.15;99085.39;272766;1272;23600;-86
2023/06/22 18:33:05;;;;;;;8.40;7.20;;;;;;;26.06;61.64;99083.80;273628;1269;22220;-84
2023/06/22 18:39:15;;;;;;;9.20;6.60;;;;;;;25.92;61.87;99085.39;273722;1256;22130;-84
2023/06/22 18:45:43;;;;;;;10.60;6.80;;;;;;;25.77;62.23;99084.59;273700;1269;22180;-85
2023/06/22 18:51:54;;;;;;;13.80;6.90;;;;;;;25.63;62.70;99087.52;273586;1266;22213;-85
2023/06/22 18:58:12;;;;;;;9.30;7.20;;;;;;;25.48;62.99;99089.91;273752;1267;22349;-85
2023/06/22 19:05:09;;;;;;;12.10;7.70;;;;;;;25.33;63.40;99105.52;273690;1269;22219;-85
2023/06/22 19:11:40;;;;;;;13.20;7.70;;;;;;;25.16;63.80;99112.15;273531;1267;23246;-84
2023/06/22 19:17:42;;;;;;;11.60;7.90;;;;;;;25.01;64.13;99115.73;271593;1267;22613;-84
2023/06/22 19:24:03;;;;;;;9.60;7.70;;;;;;;24.87;64.59;99115.25;272352;1267;23579;-85
2023/06/22 19:30:23;;;;;;;8.80;7.70;;;;;;;24.73;64.67;99122.21;273566;1267;22548;-85
2023/06/22 19:36:38;;;;;;;13.00;8.80;;;;;;;24.61;64.85;99119.27;270718;1268;22228;-85
2023/06/22 19:43:17;;;;;;;9.60;8.20;;;;;;;24.47;65.40;99120.91;272596;1267;22942;-84
2023/06/22 19:50:19;;;;;;;10.50;8.00;;;;;;;24.34;65.79;99118.74;273467;1268;22221;-85
2023/06/22 19:56:23;;;;;;;9.50;7.90;;;;;;;24.19;66.26;99107.23;274053;1267;22413;-84
2023/06/22 20:02:26;;;;;;;12.40;8.20;;;;;;;24.05;66.64;99104.23;272712;1267;22573;-84
2023/06/22 20:08:27;;;;;;;13.40;7.90;;;;;;;23.92;67.02;99098.73;271167;1257;22409;-85
2023/06/22 20:15:12;;;;;;;12.00;8.10;;;;;;;23.80;67.49;99095.80;270384;1269;22635;-85
2023/06/22 20:21:13;;;;;;;10.00;7.90;;;;;;;23.65;68.15;99101.63;270772;1269;22353;-85
2023/06/22 20:27:34;;;;;;;8.30;7.40;;;;;;;23.42;68.64;99106.67;273549;1269;23711;-85
2023/06/22 20:34:11;;;;;;;8.20;6.90;;;;;;;23.20;69.43;99112.60;269976;1269;22564;-84
2023/06/22 20:40:59;;;;;;;9.50;7.80;;;;;;;22.91;70.19;99101.23;271641;1267;22297;-85
2023/06/22 20:47:14;;;;;;;9.00;7.70;;;;;;;22.73;70.91;99080.17;273916;1268;22309;-85
2023/06/22 20:53:15;;;;;;;11.00;7.70;;;;;;;22.70;70.90;99065.27;273971;1261;22217;-85
2023/06/22 20:59:36;;;;;;;11.00;7.80;;;;;;;22.76;71.11;99058.61;273751;1260;22182;-85
2023/06/22 21:07:00;;;;;;;11.40;7.20;;;;;;;22.69;72.07;99054.63;274102;1273;23068;-84
2023/06/22 21:13:02;;;;;;;10.80;8.50;;;;;;;22.52;72.54;99045.77;274052;1270;22342;-85
2023/06/22 21:19:04;;;;;;;9.40;6.90;;;;;;;22.46;72.75;99036.88;272990;1256;22546;-85
2023/06/22 21:25:10;;;;;;;11.50;8.00;;;;;;;22.48;72.96;99030.52;270480;1259;22376;-84
2023/06/22 21:31:11;;;;;;;12.30;8.10;;;;;;;22.43;73.30;99027.81;271392;1267;23747;-86
2023/06/22 21:37:12;;;;;;;9.20;7.80;;;;;;;22.26;73.77;99035.61;270362;1269;22602;-85
2023/06/22 21:43:56;;;;;;;12.00;8.40;;;;;;;22.02;74.47;99032.64;271259;1269;22201;-86
2023/06/22 21:50:19;;;;;;;8.90;7.90;;;;;;;21.83;75.43;99033.63;272650;1267;22258;-85
2023/06/22 21:56:41;;;;;;;13.20;9.70;;;;;;;21.62;76.76;99025.42;271131;1266;25174;-85
2023/06/22 22:02:46;;;;;;;11.60;8.40;;;;;;;21.46;77.54;99019.91;270167;1269;22543;-85
2023/06/22 22:09:04;;;;;;;13.60;9.40;;;;;;;21.36;77.87;99014.26;269858;1269;22532;-85
2023/06/22 22:15:05;;;;;;;;;;;;;;;21.23;78.59;99004.48;270035;1267;22460;-85
2023/06/22 22:21:30;;;;;;;9.90;8.90;;;;;;;21.06;79.37;98986.36;270170;1259;25335;-84
2023/06/22 22:27:38;;;;;;;11.60;9.20;;;;;;;20.93;80.13;98978.23;270396;1269;22526;-84
2023/06/22 22:33:58;;;;;;;12.50;8.80;;;;;;;20.82;80.52;98972.60;269719;1267;25476;-84
2023/06/22 22:40:10;;;;;;;9.50;8.50;;;;;;;20.68;80.97;98961.90;269766;1267;22540;-85
2023/06/22 22:46:11;;;;;;;11.90;9.70;;;;;;;20.49;81.81;98959.22;271253;1267;22375;-85
2023/06/22 22:52:19;;;;;;;12.00;9.90;;;;;;;20.35;82.14;98945.48;270982;1269;25436;-85
2023/06/22 22:59:01;;;;;;;12.40;9.40;;;;;;;20.22;82.82;98926.21;270067;1269;23233;-85
2023/06/22 23:05:10;;;;;;;12.40;10.40;;;;;;;20.02;83.50;98913.73;269953;1263;22565;-85
2023/06/22 23:11:11;;;;;;;10.80;9.70;;;;;;;19.87;84.18;98914.17;270399;1267;22553;-85
2023/06/22 23:17:13;;;;;;;12.10;9.90;;;;;;;19.87;85.41;98911.16;269626;1268;22544;-85
2023/06/22 23:23:15;;;;;;;13.10;10.30;;;;;;;19.88;85.53;98899.38;270459;1270;22620;-85
2023/06/22 23:29:21;;;;;;;12.50;10.10;;;;;;;19.74;85.67;98892.21;269883;1267;22339;-86
2023/06/22 23:36:10;;;;;;;14.30;11.20;;;;;;;19.63;86.33;98893.09;273809;1269;22425;-86
2023/06/22 23:42:14;;;;;;;13.20;10.40;;;;;;;19.56;86.79;98900.66;273243;1269;22232;-85
2023/06/22 23:48:16;;;;;;;11.10;9.10;;;;;;;19.51;87.29;98896.73;273867;1269;22229;-86
2023/06/22 23:54:18;;;;;;;12.60;10.30;;;;;;;19.42;87.89;98898.64;273879;1269;22433;-85
